Time;durP1;ratioP1;P1;durP2;ratioP2;P2;SDS_P1;SDS_P2;PMS_P1;PMS_P2;Temp;Humidity;BMP_temperature;BMP_pressure;BME280_temperature;BME280_humidity;BME280_pressure;Samples;Min_cycle;Max_cycle;Signal;HPM_P1;HPM_P2
2022/10/14 00:02:00;;;;;;;52.05;36.00;;;;;;;11.29;100.00;101387.06;5007418;28;20251;-47
2022/10/14 00:04:26;;;;;;;49.80;35.45;;;;;;;11.29;100.00;101391.56;5013299;28;20294;-50
2022/10/14 00:06:51;;;;;;;43.03;31.77;;;;;;;11.28;100.00;101377.25;5011343;28;20183;-44
2022/10/14 00:09:17;;;;;;;57.80;38.83;;;;;;;11.15;100.00;101373.22;5007470;28;20191;-45
2022/10/14 00:11:42;;;;;;;57.05;38.38;;;;;;;11.13;100.00;101375.06;5019463;28;20189;-47
2022/10/14 00:14:14;;;;;;;55.13;38.20;;;;;;;11.11;100.00;101385.84;5011364;28;20234;-47
2022/10/14 00:16:42;;;;;;;59.47;38.40;;;;;;;11.09;100.00;101379.66;5008640;28;20212;-45
2022/10/14 00:19:09;;;;;;;46.20;35.20;;;;;;;11.17;100.00;101381.19;5012607;28;20180;-48
2022/10/14 00:21:36;;;;;;;55.65;37.55;;;;;;;11.11;100.00;101369.75;5007359;28;20566;-46
2022/10/14 00:24:04;;;;;;;59.85;38.45;;;;;;;11.14;100.00;101371.44;5012760;28;20181;-46
2022/10/14 00:26:32;;;;;;;48.15;35.85;;;;;;;11.14;100.00;101363.41;5011331;28;20260;-43
2022/10/14 00:28:59;;;;;;;64.35;40.63;;;;;;;11.08;100.00;101361.78;5008449;28;20172;-46
2022/10/14 00:31:29;;;;;;;52.80;35.05;;;;;;;11.18;100.00;101361.50;5002700;28;20581;-48
2022/10/14 00:33:55;;;;;;;51.58;36.13;;;;;;;11.09;100.00;101363.56;5013825;28;20279;-48
2022/10/14 00:36:23;;;;;;;59.10;40.10;;;;;;;11.08;100.00;101361.78;5009486;28;20683;-49
2022/10/14 00:38:49;;;;;;;65.13;41.67;;;;;;;11.07;100.00;101357.38;5007329;28;20181;-46
2022/10/14 00:41:22;;;;;;;57.80;39.42;;;;;;;11.08;100.00;101355.56;5017750;28;20168;-46
2022/10/14 00:43:52;;;;;;;59.30;40.83;;;;;;;11.01;100.00;101356.69;5011332;28;20205;-48
2022/10/14 00:46:18;;;;;;;60.97;41.90;;;;;;;10.99;100.00;101351.34;5006854;28;20177;-47
2022/10/14 00:48:43;;;;;;;62.85;42.83;;;;;;;11.04;100.00;101354.78;5016181;28;20165;-45
2022/10/14 00:51:09;;;;;;;61.70;39.92;;;;;;;11.02;100.00;101353.97;5010877;28;20200;-47
2022/10/14 00:53:40;;;;;;;58.95;38.28;;;;;;;11.07;100.00;101341.28;5004236;28;20236;-49
2022/10/14 00:56:07;;;;;;;63.97;40.15;;;;;;;10.99;100.00;101343.31;5009715;28;20219;-48
2022/10/14 00:58:33;;;;;;;60.63;39.20;;;;;;;11.03;100.00;101336.06;5015326;28;20607;-44
2022/10/14 01:00:59;;;;;;;54.08;37.85;;;;;;;11.06;100.00;101341.31;5002720;28;20216;-46
2022/10/14 01:03:25;;;;;;;66.05;41.30;;;;;;;10.95;100.00;101338.97;5012983;28;20207;-49
2022/10/14 01:06:35;;;;;;;55.33;37.45;;;;;;;10.97;100.00;101349.66;5017726;28;20182;-49
2022/10/14 01:09:28;;;;;;;51.08;35.42;;;;;;;11.01;100.00;101352.19;5013640;28;20569;-50
2022/10/14 01:12:08;;;;;;;61.58;39.67;;;;;;;10.96;100.00;101347.91;5014087;28;21740;-46
2022/10/14 01:14:48;;;;;;;59.80;39.10;;;;;;;10.97;100.00;101346.97;5022836;28;20180;-45
2022/10/14 01:17:28;;;;;;;64.03;40.22;;;;;;;10.94;100.00;101342.59;5018879;28;20184;-45
2022/10/14 01:20:19;;;;;;;57.97;39.45;;;;;;;10.97;100.00;101338.94;5010176;28;20215;-47
2022/10/14 01:23:17;;;;;;;57.90;38.08;;;;;;;10.97;100.00;101337.13;4969334;28;20224;-50
2022/10/14 01:25:57;;;;;;;56.78;37.38;;;;;;;10.95;100.00;101330.94;4983072;28;20199;-48
2022/10/14 01:28:41;;;;;;;61.67;39.85;;;;;;;10.91;100.00;101327.50;5005354;28;20196;-48
2022/10/14 01:31:12;;;;;;;63.72;40.95;;;;;;;10.90;100.00;101341.81;5011760;28;20266;-45
2022/10/14 01:33:42;;;;;;;66.35;42.10;;;;;;;10.92;100.00;101331.03;5022676;28;20603;-47
2022/10/14 01:36:16;;;;;;;59.00;39.20;;;;;;;10.97;100.00;101329.06;5004927;28;20174;-47
2022/10/14 01:38:57;;;;;;;59.88;38.88;;;;;;;10.96;100.00;101346.09;5012909;28;20200;-48
2022/10/14 01:41:34;;;;;;;70.68;44.80;;;;;;;10.89;100.00;101345.41;5004548;28;20645;-45
2022/10/14 01:44:08;;;;;;;60.65;39.53;;;;;;;10.95;100.00;101346.16;5020129;28;20285;-48
2022/10/14 01:46:38;;;;;;;65.30;42.72;;;;;;;10.94;100.00;101347.97;5014091;28;20642;-48
2022/10/14 01:49:09;;;;;;;61.00;42.10;;;;;;;10.98;100.00;101341.56;5014133;28;20192;-50
2022/10/14 01:51:42;;;;;;;62.13;41.20;;;;;;;11.01;100.00;101341.47;5012495;28;20200;-46
2022/10/14 01:54:14;;;;;;;67.28;42.33;;;;;;;10.99;100.00;101345.13;5012013;28;20208;-51
2022/10/14 01:56:43;;;;;;;58.67;38.53;;;;;;;11.01;100.00;101332.56;5025888;28;20681;-46
2022/10/14 01:59:13;;;;;;;60.63;40.10;;;;;;;11.00;100.00;101339.72;4995665;28;20192;-47
2022/10/14 02:01:38;;;;;;;52.58;36.10;;;;;;;11.06;100.00;101336.84;5016620;28;20168;-47
2022/10/14 02:04:19;;;;;;;57.72;39.92;;;;;;;11.02;100.00;101335.19;5006563;28;20187;-51
2022/10/14 02:07:13;;;;;;;63.85;41.83;;;;;;;10.99;100.00;101327.22;4999945;28;20195;-47
2022/10/14 02:10:02;;;;;;;64.57;42.50;;;;;;;11.00;100.00;101329.00;5004152;28;20554;-44
2022/10/14 02:12:46;;;;;;;64.75;42.03;;;;;;;10.97;100.00;101337.13;5014874;28;20220;-44
2022/10/14 02:15:21;;;;;;;65.68;43.80;;;;;;;10.98;100.00;101332.66;5014141;28;20647;-45
2022/10/14 02:17:55;;;;;;;61.13;41.15;;;;;;;10.99;100.00;101327.22;5015707;28;20268;-46
2022/10/14 02:20:28;;;;;;;68.18;42.90;;;;;;;11.00;100.00;101329.00;5012806;28;20180;-44
2022/10/14 02:23:07;;;;;;;72.20;45.55;;;;;;;10.98;100.00;101346.06;5012965;28;20205;-51
2022/10/14 02:25:38;;;;;;;60.00;41.40;;;;;;;11.03;100.00;101342.28;5009516;28;20752;-46
2022/10/14 02:28:06;;;;;;;62.03;40.75;;;;;;;11.09;100.00;101338.56;5006113;28;20837;-48
2022/10/14 02:30:41;;;;;;;66.53;43.05;;;;;;;11.04;100.00;101340.47;5017914;28;20663;-46
2022/10/14 02:33:07;;;;;;;67.45;43.30;;;;;;;11.02;100.00;101343.25;5004530;28;20193;-43
2022/10/14 02:35:35;;;;;;;74.72;46.03;;;;;;;11.01;100.00;101340.59;5023829;28;20253;-45
2022/10/14 02:38:05;;;;;;;58.22;38.72;;;;;;;11.08;100.00;101334.97;4995761;28;20188;-45
2022/10/14 02:40:44;;;;;;;70.40;45.25;;;;;;;11.03;100.00;101336.94;5008309;28;20181;-46
2022/10/14 02:43:11;;;;;;;54.90;37.35;;;;;;;11.11;100.00;101347.44;5005500;28;20220;-45
2022/10/14 02:45:38;;;;;;;68.50;44.30;;;;;;;11.11;100.00;101337.56;5010072;28;20200;-44
2022/10/14 02:48:05;;;;;;;68.15;43.35;;;;;;;11.12;100.00;101351.84;5018435;28;20180;-46
2022/10/14 02:50:30;;;;;;;67.75;44.58;;;;;;;11.10;100.00;101345.66;5012637;28;20205;-49
2022/10/14 02:52:56;;;;;;;69.80;44.75;;;;;;;11.10;100.00;101338.47;5008452;28;20204;-44
2022/10/14 02:55:21;;;;;;;74.25;45.63;;;;;;;11.08;100.00;101344.81;5015224;28;20274;-44
2022/10/14 02:57:46;;;;;;;71.40;46.13;;;;;;;11.08;100.00;101336.78;5013782;28;20185;-50
2022/10/14 03:00:13;;;;;;;76.55;47.20;;;;;;;11.11;100.00;101334.88;5012230;28;20268;-45
2022/10/14 03:02:41;;;;;;;67.82;44.13;;;;;;;11.11;100.00;101339.38;4995964;28;20248;-49
2022/10/14 03:05:07;;;;;;;73.32;46.97;;;;;;;11.17;100.00;101338.28;5006113;28;20168;-51
2022/10/14 03:07:32;;;;;;;72.88;47.20;;;;;;;11.12;100.00;101335.75;5011899;28;20279;-44
2022/10/14 03:10:02;;;;;;;86.45;49.00;;;;;;;11.09;100.00;101338.56;5010487;28;20550;-49
2022/10/14 03:12:29;;;;;;;84.65;47.88;;;;;;;11.09;100.00;101334.06;5008817;28;20746;-47
2022/10/14 03:14:55;;;;;;;77.28;47.45;;;;;;;11.14;100.00;101328.53;5003551;28;20274;-50
2022/10/14 03:17:23;;;;;;;81.93;49.45;;;;;;;11.14;100.00;101334.78;5011472;28;20188;-46
2022/10/14 03:19:49;;;;;;;80.60;49.30;;;;;;;11.09;100.00;101334.06;5014355;28;20651;-50
2022/10/14 03:22:14;;;;;;;83.78;49.60;;;;;;;11.13;100.00;101322.31;5014372;28;20208;-46
2022/10/14 03:24:40;;;;;;;76.43;48.42;;;;;;;11.13;100.00;101324.13;5015717;28;20176;-48
2022/10/14 03:27:33;;;;;;;84.20;49.92;;;;;;;11.12;100.00;101322.34;5010435;28;20191;-47
2022/10/14 03:30:05;;;;;;;69.95;45.53;;;;;;;11.18;100.00;101326.66;5007564;28;20203;-47
2022/10/14 03:32:33;;;;;;;90.03;51.60;;;;;;;11.12;100.00;101331.25;5010191;28;20228;-45
2022/10/14 03:35:30;;;;;;;89.65;50.70;;;;;;;11.11;100.00;101318.78;5012906;28;20185;-47
2022/10/14 03:38:01;;;;;;;87.43;50.95;;;;;;;11.12;100.00;101325.03;5009937;28;20734;-46
2022/10/14 03:40:29;;;;;;;76.88;46.20;;;;;;;11.14;100.00;101318.69;5011345;28;20192;-47
2022/10/14 03:42:59;;;;;;;79.65;48.92;;;;;;;11.10;100.00;101317.03;5011522;28;20220;-46
2022/10/14 03:45:28;;;;;;;78.25;47.63;;;;;;;11.11;100.00;101324.16;5006520;28;20188;-48
2022/10/14 03:47:55;;;;;;;83.70;49.70;;;;;;;11.08;100.00;101328.72;5016757;28;20211;-47
2022/10/14 03:50:21;;;;;;;85.00;48.17;;;;;;;11.09;100.00;101323.34;5017052;28;20203;-50
2022/10/14 03:52:51;;;;;;;89.00;49.95;;;;;;;11.08;100.00;101318.88;5006289;28;20568;-47
2022/10/14 03:55:23;;;;;;;72.28;45.47;;;;;;;11.11;100.00;101326.84;4995317;28;20181;-48
2022/10/14 03:57:50;;;;;;;82.97;48.58;;;;;;;11.07;100.00;101327.00;4997643;28;20181;-50
2022/10/14 04:00:17;;;;;;;85.70;49.03;;;;;;;11.06;100.00;101318.09;5011742;28;20176;-47
2022/10/14 04:02:46;;;;;;;75.32;45.67;;;;;;;11.12;100.00;101333.06;5010161;28;20201;-48
2022/10/14 04:05:32;;;;;;;86.47;48.95;;;;;;;11.02;100.00;101323.56;5002824;28;20271;-48
2022/10/14 04:08:00;;;;;;;82.80;46.85;;;;;;;11.07;100.00;101322.50;4992079;28;20588;-47
2022/10/14 04:10:27;;;;;;;88.05;49.90;;;;;;;11.04;100.00;101319.94;4996405;28;20267;-49
2022/10/14 04:12:54;;;;;;;85.75;50.60;;;;;;;11.01;100.00;101311.97;4993440;28;20223;-48
2022/10/14 04:15:26;;;;;;;86.32;50.38;;;;;;;11.00;100.00;101304.88;5018516;28;21155;-50
2022/10/14 04:18:05;;;;;;;88.50;49.80;;;;;;;11.01;100.00;101303.06;5009027;28;20652;-47
2022/10/14 04:20:31;;;;;;;76.10;45.60;;;;;;;11.02;100.00;101307.47;5001858;28;20200;-47
2022/10/14 04:22:58;;;;;;;81.28;46.63;;;;;;;11.03;100.00;101303.88;5002542;28;20234;-49
2022/10/14 04:25:24;;;;;;;82.97;48.15;;;;;;;11.04;100.00;101295.81;5000997;28;20259;-48
2022/10/14 04:27:54;;;;;;;86.35;48.60;;;;;;;11.04;100.00;101306.53;5016995;28;20203;-48
2022/10/14 04:30:25;;;;;;;84.03;48.05;;;;;;;11.01;100.00;101311.97;5013937;28;20204;-45
2022/10/14 04:32:53;;;;;;;79.65;47.17;;;;;;;11.00;100.00;101299.50;5009864;28;20200;-46
2022/10/14 04:35:19;;;;;;;75.82;46.03;;;;;;;11.03;100.00;101304.75;5009480;28;20635;-46
2022/10/14 04:37:50;;;;;;;85.88;47.53;;;;;;;11.00;100.00;101303.97;5007515;28;20456;-45
2022/10/14 04:40:25;;;;;;;92.90;49.47;;;;;;;10.97;100.00;101307.63;4989683;28;20189;-45
2022/10/14 04:42:56;;;;;;;81.50;47.05;;;;;;;10.98;100.00;101305.84;4989974;28;20197;-44
2022/10/14 04:45:26;;;;;;;85.22;48.20;;;;;;;10.96;100.00;101305.03;5016020;28;20194;-45
2022/10/14 04:47:59;;;;;;;84.60;48.35;;;;;;;10.98;100.00;101308.53;4993507;28;20181;-45
2022/10/14 04:50:25;;;;;;;89.30;48.75;;;;;;;10.95;100.00;101305.94;5015941;28;20184;-47
2022/10/14 04:53:10;;;;;;;86.00;48.47;;;;;;;10.92;100.00;101298.88;4993657;28;20327;-46
2022/10/14 04:55:39;;;;;;;92.15;49.15;;;;;;;10.95;100.00;101303.25;4990404;28;20213;-45
2022/10/14 04:58:05;;;;;;;92.53;48.72;;;;;;;10.95;100.00;101301.44;4989672;28;20208;-46
2022/10/14 05:00:38;;;;;;;94.28;48.92;;;;;;;10.94;100.00;101299.69;5008426;28;20560;-43
2022/10/14 05:03:20;;;;;;;102.47;50.95;;;;;;;10.91;100.00;101302.47;5009391;28;20208;-44
2022/10/14 05:05:45;;;;;;;97.93;49.45;;;;;;;10.96;100.00;101299.66;5010612;28;20550;-44
2022/10/14 05:08:11;;;;;;;94.38;49.97;;;;;;;10.91;100.00;101289.97;5007505;28;20236;-46
2022/10/14 05:10:40;;;;;;;102.72;49.67;;;;;;;10.89;100.00;101290.94;4995991;28;20173;-44
2022/10/14 05:13:09;;;;;;;91.07;48.58;;;;;;;10.96;100.00;101289.81;5005854;28;20236;-46
2022/10/14 05:15:44;;;;;;;103.68;51.28;;;;;;;10.91;100.00;101292.63;5003545;28;20202;-45
2022/10/14 05:18:11;;;;;;;87.53;46.67;;;;;;;10.94;100.00;101288.97;5020447;28;20246;-46
2022/10/14 05:20:58;;;;;;;98.07;50.00;;;;;;;10.90;100.00;101296.22;5017227;28;20708;-46
2022/10/14 05:23:30;;;;;;;95.45;48.65;;;;;;;10.90;100.00;101292.69;5008751;28;20679;-45
2022/10/14 05:25:57;;;;;;;94.30;48.47;;;;;;;10.88;100.00;101289.16;5001993;28;20658;-51
2022/10/14 05:28:23;;;;;;;96.05;47.85;;;;;;;10.90;100.00;101282.81;5012587;28;20179;-49
2022/10/14 05:30:49;;;;;;;93.93;47.83;;;;;;;10.83;100.00;101283.09;4999957;28;20222;-50
2022/10/14 05:33:15;;;;;;;89.55;45.20;;;;;;;10.82;100.00;101274.19;5006633;28;20216;-49
2022/10/14 05:35:42;;;;;;;95.57;47.42;;;;;;;10.81;100.00;101279.56;4995811;28;20184;-49
2022/10/14 05:38:08;;;;;;;93.18;45.65;;;;;;;10.81;100.00;101282.25;5010858;28;20573;-50
2022/10/14 05:40:37;;;;;;;89.50;44.42;;;;;;;10.82;100.00;101275.94;5005748;28;20575;-48
2022/10/14 05:43:03;;;;;;;83.40;44.53;;;;;;;10.82;100.00;101271.50;5016121;28;20250;-49
2022/10/14 05:45:30;;;;;;;96.70;46.53;;;;;;;10.77;100.00;101277.91;5009004;28;20180;-50
2022/10/14 05:47:55;;;;;;;91.68;45.50;;;;;;;10.80;100.00;101280.47;4980000;28;20191;-50
2022/10/14 05:50:21;;;;;;;87.32;44.83;;;;;;;10.77;100.00;101272.56;5002965;28;20192;-49
2022/10/14 05:52:47;;;;;;;74.63;41.63;;;;;;;10.84;100.00;101274.09;5005389;28;20603;-48
2022/10/14 05:55:20;;;;;;;76.03;40.97;;;;;;;10.87;100.00;101269.53;5010488;28;20700;-49
2022/10/14 05:57:46;;;;;;;77.05;41.60;;;;;;;10.89;100.00;101262.31;5012045;28;20188;-50
2022/10/14 06:00:18;;;;;;;76.80;41.88;;;;;;;10.86;100.00;101272.25;5000421;28;20172;-52
2022/10/14 06:02:45;;;;;;;81.28;41.17;;;;;;;10.81;100.00;101271.53;5000974;28;20204;-45
2022/10/14 06:05:14;;;;;;;84.68;43.50;;;;;;;10.77;100.00;101261.84;5006374;28;20177;-45
2022/10/14 06:07:40;;;;;;;84.13;44.35;;;;;;;10.77;100.00;101264.50;5005043;28;20344;-44
2022/10/14 06:10:06;;;;;;;85.15;43.20;;;;;;;10.77;100.00;101262.69;5003714;28;20857;-45
2022/10/14 06:12:31;;;;;;;76.72;42.67;;;;;;;10.76;100.00;101254.69;5000839;28;20540;-44
2022/10/14 06:14:57;;;;;;;75.95;42.75;;;;;;;10.76;100.00;101252.91;5003473;28;20552;-44
2022/10/14 06:17:23;;;;;;;77.60;42.67;;;;;;;10.76;100.00;101260.97;5009464;28;20230;-44
2022/10/14 06:19:48;;;;;;;74.88;40.35;;;;;;;10.81;100.00;101271.53;5011597;28;20639;-44
2022/10/14 06:22:14;;;;;;;80.45;43.25;;;;;;;10.77;100.00;101265.38;5009669;28;20203;-46
2022/10/14 06:24:39;;;;;;;79.18;40.85;;;;;;;10.80;100.00;101259.03;5010522;28;20272;-45
2022/10/14 06:27:05;;;;;;;78.53;42.00;;;;;;;10.78;100.00;101269.84;5012238;28;20259;-42
2022/10/14 06:29:36;;;;;;;76.82;41.83;;;;;;;10.82;100.00;101267.91;5009192;28;20185;-43
2022/10/14 06:32:06;;;;;;;79.63;42.10;;;;;;;10.83;100.00;101258.97;5014561;28;20287;-44
2022/10/14 06:34:33;;;;;;;68.50;40.05;;;;;;;10.87;100.00;101253.44;5015917;28;20221;-44
2022/10/14 06:36:59;;;;;;;83.35;42.05;;;;;;;10.84;100.00;101263.38;5010541;28;20203;-43
2022/10/14 06:39:25;;;;;;;69.18;39.17;;;;;;;10.89;100.00;101254.28;5017403;28;20192;-43
2022/10/14 06:41:50;;;;;;;68.40;39.05;;;;;;;10.89;100.00;101248.03;5014218;28;20169;-43
2022/10/14 06:44:19;;;;;;;66.60;39.13;;;;;;;10.92;100.00;101251.47;5009455;28;20216;-43
2022/10/14 06:46:45;;;;;;;64.28;37.00;;;;;;;10.99;100.00;101254.84;5017217;28;20188;-42
2022/10/14 06:51:40;;;;;;;68.57;39.13;;;;;;;10.92;100.00;101251.47;5069173;22;20223;-88
2022/10/14 06:54:12;;;;;;;72.40;39.63;;;;;;;10.93;100.00;101244.31;5040780;28;20171;-92
2022/10/14 06:56:52;;;;;;;81.90;41.03;;;;;;;10.91;100.00;101248.84;5025009;28;20198;-91
2022/10/14 06:59:43;;;;;;;73.13;41.20;;;;;;;10.96;100.00;101243.34;5049385;22;20389;-46
2022/10/14 07:02:09;;;;;;;78.75;41.13;;;;;;;10.97;100.00;101255.81;5029801;28;20295;-46
2022/10/14 07:04:35;;;;;;;76.07;42.08;;;;;;;10.93;100.00;101242.53;5007591;28;20199;-48
2022/10/14 07:07:01;;;;;;;73.25;40.45;;;;;;;10.94;100.00;101248.75;5018370;28;20185;-46
2022/10/14 07:09:27;;;;;;;71.03;39.50;;;;;;;11.01;100.00;101249.44;5017554;28;20546;-48
2022/10/14 07:11:53;;;;;;;71.25;40.45;;;;;;;10.99;100.00;101248.59;5022679;28;20275;-48
2022/10/14 07:14:19;;;;;;;80.45;41.63;;;;;;;11.03;100.00;101256.50;5012053;28;20263;-48
2022/10/14 07:16:45;;;;;;;68.85;38.53;;;;;;;11.04;100.00;101255.59;5016358;28;20180;-46
2022/10/14 07:19:11;;;;;;;67.07;39.25;;;;;;;11.08;100.00;101251.84;4999460;28;20910;-48
2022/10/14 07:21:37;;;;;;;72.95;40.20;;;;;;;11.06;100.00;101258.19;5018924;28;20172;-47
2022/10/14 07:24:03;;;;;;;67.15;38.33;;;;;;;11.09;100.00;101250.06;5019436;28;20188;-47
2022/10/14 07:26:32;;;;;;;66.32;38.72;;;;;;;11.13;100.00;101257.06;5019773;28;20191;-48
2022/10/14 07:28:57;;;;;;;64.75;37.67;;;;;;;11.19;100.00;101254.16;5010870;28;20185;-47
2022/10/14 07:31:23;;;;;;;58.70;36.67;;;;;;;11.23;100.00;101250.44;5017775;28;20192;-47
2022/10/14 07:33:48;;;;;;;67.90;38.08;;;;;;;11.21;100.00;101246.94;5014653;28;20635;-48
2022/10/14 07:36:16;;;;;;;62.72;37.92;;;;;;;11.20;100.00;101247.00;5018536;28;20199;-48
2022/10/14 07:38:42;;;;;;;59.03;36.10;;;;;;;11.28;100.00;101251.19;5019735;28;20194;-48
2022/10/14 07:41:15;;;;;;;66.07;39.20;;;;;;;11.26;100.00;101244.09;5025397;28;20509;-49
2022/10/14 07:43:43;;;;;;;64.22;37.88;;;;;;;11.22;100.00;101246.03;5020157;28;20266;-47
2022/10/14 07:46:08;;;;;;;58.30;37.53;;;;;;;11.28;100.00;101247.59;5016953;28;20207;-47
2022/10/14 07:48:35;;;;;;;57.88;35.50;;;;;;;11.34;100.00;101244.72;5019500;28;20184;-46
2022/10/14 07:51:01;;;;;;;65.75;40.67;;;;;;;11.36;100.00;101247.34;5015203;28;20177;-47
2022/10/14 07:53:27;;;;;;;68.55;41.13;;;;;;;11.32;100.00;101249.25;5012754;28;20204;-47
2022/10/14 07:55:57;;;;;;;63.00;39.72;;;;;;;11.34;100.00;101255.44;5021661;28;20177;-47
2022/10/14 07:58:25;;;;;;;52.75;35.10;;;;;;;11.47;100.00;101254.09;5016219;28;20234;-47
2022/10/14 08:00:51;;;;;;;66.30;38.35;;;;;;;11.42;100.00;101253.38;5012497;28;20200;-46
2022/10/14 08:03:18;;;;;;;59.95;38.08;;;;;;;11.50;100.00;101248.63;5020685;28;20250;-52
2022/10/14 08:05:44;;;;;;;60.63;37.83;;;;;;;11.57;100.00;101248.38;5017052;28;20185;-48
2022/10/14 08:08:10;;;;;;;62.25;37.40;;;;;;;11.58;100.00;101252.84;5015516;28;20211;-48
2022/10/14 08:10:37;;;;;;;56.90;36.53;;;;;;;11.66;100.00;101261.50;5015993;28;20181;-45
2022/10/14 08:13:02;;;;;;;59.17;38.33;;;;;;;11.64;100.00;101258.88;5018623;28;20206;-47
2022/10/14 08:15:33;;;;;;;51.65;37.17;;;;;;;11.64;100.00;101255.31;5022922;28;20538;-49
2022/10/14 08:17:58;;;;;;;54.80;35.75;;;;;;;11.72;100.00;101262.16;5017584;28;20261;-47
2022/10/14 08:20:24;;;;;;;58.72;39.03;;;;;;;11.67;100.00;101250.69;5017772;28;20608;-47
2022/10/14 08:22:49;;;;;;;53.55;36.55;;;;;;;11.80;100.00;101256.50;5009598;28;20231;-47
2022/10/14 08:25:15;;;;;;;63.05;37.47;;;;;;;11.86;100.00;101255.41;5023935;28;20199;-48
2022/10/14 08:27:40;;;;;;;64.43;37.92;;;;;;;11.85;100.00;101259.91;5020291;28;20164;-49
2022/10/14 08:30:06;;;;;;;54.83;36.60;;;;;;;11.94;100.00;101253.34;5019806;28;20234;-48
2022/10/14 08:32:32;;;;;;;54.28;35.60;;;;;;;11.87;100.00;101258.03;5005094;28;20208;-48
2022/10/14 08:34:57;;;;;;;54.08;35.35;;;;;;;11.91;100.00;101266.88;5016134;28;20192;-47
2022/10/14 08:37:23;;;;;;;55.58;35.70;;;;;;;11.91;100.00;101264.19;5015799;28;20227;-46
2022/10/14 08:39:48;;;;;;;54.33;35.03;;;;;;;11.98;100.00;101257.66;5001246;28;20200;-47
2022/10/14 08:42:35;;;;;;;51.50;34.22;;;;;;;12.03;100.00;101255.69;5014144;28;20215;-48
2022/10/14 08:45:08;;;;;;;54.90;35.15;;;;;;;12.02;100.00;101255.75;4994405;28;20187;-49
2022/10/14 08:47:43;;;;;;;55.35;35.97;;;;;;;12.05;100.00;101243.09;5013827;28;20184;-48
2022/10/14 08:50:27;;;;;;;51.80;33.38;;;;;;;12.13;100.00;101242.78;5059469;22;20224;-42
2022/10/14 08:53:32;;;;;;;55.03;33.80;;;;;;;12.18;100.00;101246.19;4998834;28;20208;-41
2022/10/14 08:55:59;;;;;;;48.17;33.75;;;;;;;12.21;100.00;101240.69;4941199;28;20206;-46
2022/10/14 08:58:37;;;;;;;51.88;33.75;;;;;;;12.18;100.00;101230.06;4995714;28;20177;-46
2022/10/14 09:01:31;;;;;;;50.60;33.17;;;;;;;12.33;100.00;101228.56;4995949;28;20292;-43
2022/10/14 09:04:00;;;;;;;47.20;31.73;;;;;;;12.37;100.00;101240.94;4996165;28;20675;-44
2022/10/14 09:06:34;;;;;;;44.28;30.05;;;;;;;12.44;100.00;101226.38;4994529;28;20204;-44
2022/10/14 09:09:03;;;;;;;49.92;31.63;;;;;;;12.43;100.00;101229.09;4997543;28;20173;-45
2022/10/14 09:11:42;;;;;;;44.08;30.35;;;;;;;12.52;100.00;101221.53;5000410;28;20197;-46
2022/10/14 09:14:14;;;;;;;44.58;30.35;;;;;;;12.54;100.00;101225.03;4993693;28;20256;-46
2022/10/14 09:16:41;;;;;;;45.35;29.42;;;;;;;12.64;100.00;101224.66;4997640;28;20246;-43
2022/10/14 09:19:31;;;;;;;43.75;30.35;;;;;;;12.58;100.00;101217.75;4996633;28;20544;-43
2022/10/14 09:21:58;;;;;;;40.00;29.75;;;;;;;12.62;100.00;101224.75;4998740;28;20185;-45
2022/10/14 09:24:34;;;;;;;40.85;28.52;;;;;;;12.65;100.00;101231.81;4998618;28;20243;-45
2022/10/14 09:27:04;;;;;;;42.50;29.60;;;;;;;12.66;100.00;101217.41;4994958;28;20220;-47
2022/10/14 09:29:44;;;;;;;44.90;29.83;;;;;;;12.72;100.00;101225.22;4996091;28;20251;-45
2022/10/14 09:32:17;;;;;;;42.75;30.67;;;;;;;12.70;100.00;101216.34;4999914;28;20561;-46
2022/10/14 09:34:48;;;;;;;47.78;30.52;;;;;;;12.72;100.00;101204.59;4993504;28;20189;-46
2022/10/14 09:37:21;;;;;;;43.00;31.48;;;;;;;12.55;100.00;101217.84;4994740;28;20193;-44
2022/10/14 09:39:48;;;;;;;50.08;33.40;;;;;;;12.73;100.00;101202.81;4998848;28;20185;-45
2022/10/14 09:42:21;;;;;;;46.97;30.55;;;;;;;12.87;100.00;101192.31;5000587;28;20717;-45
2022/10/14 09:45:10;;;;;;;41.80;29.60;;;;;;;13.04;100.00;101186.25;4994400;28;20299;-45
2022/10/14 09:48:06;;;;;;;44.05;30.48;;;;;;;13.55;100.00;101184.91;4998106;28;20185;-45
2022/10/14 09:50:47;;;;;;;42.83;31.17;;;;;;;13.47;100.00;101181.72;4987093;28;20294;-47
2022/10/14 09:53:28;;;;;;;45.03;31.00;;;;;;;13.52;100.00;101185.06;4997802;28;20702;-45
2022/10/14 09:55:57;;;;;;;41.80;28.10;;;;;;;13.31;100.00;101181.50;5001160;28;20197;-46
2022/10/14 09:58:34;;;;;;;39.78;28.60;;;;;;;13.46;100.00;101174.56;4998508;28;20201;-44
2022/10/14 10:01:01;;;;;;;38.33;29.15;;;;;;;13.21;100.00;101172.06;5004363;28;20234;-44
2022/10/14 10:03:34;;;;;;;38.10;27.98;;;;;;;13.14;100.00;101168.78;4996887;28;20205;-45
2022/10/14 10:06:26;;;;;;;40.08;27.33;;;;;;;13.19;100.00;101158.69;5000990;28;20189;-47
2022/10/14 10:08:52;;;;;;;38.58;27.98;;;;;;;13.15;100.00;101165.13;5003935;28;20726;-45
2022/10/14 10:11:38;;;;;;;38.35;26.88;;;;;;;13.01;100.00;101164.88;4998613;28;20292;-47
2022/10/14 10:14:21;;;;;;;41.33;27.33;;;;;;;12.90;100.00;101159.94;5004215;28;20200;-45
2022/10/14 10:17:08;;;;;;;36.33;26.45;;;;;;;12.95;100.00;101155.22;5000624;28;20204;-44
2022/10/14 10:19:54;;;;;;;36.05;26.38;;;;;;;12.95;100.00;101154.38;4983942;28;20289;-47
2022/10/14 10:22:25;;;;;;;36.58;25.85;;;;;;;12.98;100.00;101148.84;4964178;28;20258;-43
2022/10/14 10:25:13;;;;;;;34.35;25.70;;;;;;;12.95;100.00;101146.31;5001947;28;20188;-43
2022/10/14 10:27:40;;;;;;;36.42;25.27;;;;;;;13.04;100.00;101150.41;4997906;28;20252;-42
2022/10/14 10:30:19;;;;;;;33.33;24.88;;;;;;;13.18;100.00;101145.28;5003171;28;20182;-45
2022/10/14 10:33:02;;;;;;;33.35;26.30;;;;;;;13.11;100.00;101142.00;5000916;28;20769;-44
2022/10/14 10:35:58;;;;;;;35.72;27.85;;;;;;;13.12;100.00;101140.19;5000667;28;20370;-45
2022/10/14 10:38:45;;;;;;;31.67;25.55;;;;;;;13.20;100.00;101149.66;4997805;28;20667;-46
2022/10/14 10:41:29;;;;;;;33.28;25.13;;;;;;;13.30;100.00;101146.59;4993073;28;20259;-44
2022/10/14 10:44:10;;;;;;;36.50;27.88;;;;;;;13.24;100.00;101152.22;4999704;28;20300;-45
2022/10/14 10:46:59;;;;;;;38.58;28.15;;;;;;;13.29;100.00;101126.00;4996500;28;20185;-45
2022/10/14 10:50:03;;;;;;;37.53;28.52;;;;;;;13.27;100.00;101125.16;5002709;28;20578;-45
2022/10/14 10:52:45;;;;;;;41.55;29.17;;;;;;;13.29;100.00;101121.50;4999511;28;20239;-47
2022/10/14 10:55:45;;;;;;;45.17;31.70;;;;;;;13.23;100.00;101120.84;4998126;28;20189;-42
2022/10/14 10:58:39;;;;;;;45.28;31.48;;;;;;;13.31;100.00;101124.13;4993292;28;20682;-41
2022/10/14 11:01:39;;;;;;;37.80;28.52;;;;;;;13.52;100.00;101125.84;4993859;28;20181;-42
2022/10/14 11:04:36;;;;;;;40.83;29.42;;;;;;;13.46;100.00;101128.81;4976018;28;20190;-44
2022/10/14 11:13:10;;;;;;;43.70;30.67;;;;;;;13.67;100.00;101107.25;5012505;28;20327;-43
2022/10/14 11:15:44;;;;;;;37.25;28.98;;;;;;;13.61;100.00;101100.31;5012433;28;20176;-41
2022/10/14 11:18:29;;;;;;;36.42;29.00;;;;;;;13.60;100.00;101099.44;5012470;28;20161;-42
2022/10/14 11:21:33;;;;;;;37.83;29.27;;;;;;;13.55;100.00;101096.06;4996423;28;20319;-43
2022/10/14 11:24:23;;;;;;;38.97;28.95;;;;;;;13.63;100.00;101097.56;4894960;29;20717;-45
2022/10/14 11:27:07;;;;;;;33.78;27.65;;;;;;;13.69;100.00;101097.28;4995715;28;20190;-46
2022/10/14 11:29:39;;;;;;;38.67;29.73;;;;;;;13.78;100.00;101102.22;4992884;28;20173;-43
2022/10/14 11:32:50;;;;;;;39.45;30.58;;;;;;;13.77;100.00;101097.78;5001830;28;20742;-43
2022/10/14 11:35:24;;;;;;;42.70;30.88;;;;;;;13.72;100.00;101106.06;5006267;28;20184;-44